Meteo Giornale » Osservazioni meteo Stati Uniti (USA) » Fort Leonard Wood
ore: 11:55 - Osservazioni Meteo Fort Leonard Wood
Lat. 37° 44' N Lon. 92° 8' W Alt. 353 metri s.l.m.
36 °C
Sereno
Temp. 24 Ore
23 °C
39 °C
Nord
0 Km/h
Dew point 19 °C
Umidità 36 %
Visibilità 10 Km
Il sole sorge alle ore 06:38
Il sole tramonta alle ore 19:38
| Data e Ora | Cielo e Fenomeni | T °C | DP °C | Um. % | Pres. hPa | Vis. km | Vento km/h | |
|---|---|---|---|---|---|---|---|---|
| Oggi h: 11:55 | Sereno | 36 | 19 | 36 | 1018 | 10 | N 0 | |
| Oggi h: 10:55 | Sereno | 35 | 19 | 39 | 1018 | 10 | O/SO 11.1 | |
| Oggi h: 09:55 | Sereno | 33 | 20 | 46 | 1018 | 10 | SO 9.3 | |
| Oggi h: 08:55 | Sereno | 30 | 20 | 55 | 1018 | 14 | S/SO 13 | |
| Oggi h: 07:55 | Sereno | 27 | 20 | 65 | 1018 | 13 | S 9.3 | |
| Oggi h: 06:55 | Sereno | 24 | 19 | 73 | 1018 | 13 | S 9.3 | |
| Oggi h: 05:55 | Sereno | 23 | 18 | 73 | 1017 | 10 | S 7.4 | |
| Oggi h: 04:55 | Sereno | 25 | 19 | 69 | 1017 | 10 | S/SO 7.4 | |
| Oggi h: 03:55 | Sereno | 25 | 18 | 65 | 1017 | 10 | S/SO 7.4 | |
| Oggi h: 02:55 | Sereno | 26 | 18 | 61 | 1016 | 10 | S 13 | |
| Oggi h: 01:55 | Sereno | 27 | 17 | 54 | 1016 | 10 | S 9.3 | |
| Oggi h: 00:55 | Foschia | 27 | 17 | 54 | 1016 | 10 | S 9.3 | |
| Ieri h: 23:55 | Foschia | 26 | 18 | 61 | 1016 | 10 | S/SE 9.3 | |
| Ieri h: 22:55 | Sereno | 28 | 17 | 51 | 1016 | 10 | S/SE 14.8 | |
| Ieri h: 21:55 | Sereno | 29 | 17 | 48 | 1016 | 10 | S/SE 7.4 | |
| Ieri h: 20:55 | Sereno | 30 | 16 | 42 | 1015 | 10 | S 7.4 | |
| Ieri h: 19:55 | Sereno | 31 | 16 | 40 | 1015 | 10 | S/SE 13 | |
| Ieri h: 18:55 | Sereno | 36 | 16 | 30 | 1014 | 10 | S/SO 7.4 | |
| Ieri h: 17:55 | Sereno | 38 | 15 | 25 | 1014 | 10 | S/SO 9.3 | |
| Ieri h: 16:55 | Poco Nuvoloso | 38 | 15 | 25 | 1015 | 10 | S 11.1 | |
| Ieri h: 15:55 | Sereno | 39 | 15 | 24 | 1015 | 10 | S 14.8 | |
| Ieri h: 14:55 | Sereno | 38 | 15 | 25 | 1015 | 10 | SE 9.3 | |
| Ieri h: 13:55 | Poco Nuvoloso | 38 | 16 | 27 | 1016 | 10 | S 20.3 | |
| Ieri h: 12:55 | Sereno | 37 | 17 | 30 | 1017 | 10 | O/SO 9.3 | |



